Carson, Alabama
Current Conditions -  °F | °C
As of 12:53 PM on Saturday 25 Oct 2014 (Local Time) from KGZH Reporting Station
Clear Clear  
Wind Chill: 75°   Ceiling: Unl
Heat Index: 75°   Visibility: 10mi
Dew Point: 50°   Wind: 9mph
Humidity: 41%   Direction: 330°NNW
Pressure: 30.09"   Gusts: NA
Location:  31.4775°N, 87.9599°W
Report Text: KGZH 251753Z AUTO 33008KT 10SM CLR 24/10 A3009 RMK AO2 SLP186 T02390100 10244 20072 58017
Loading
Personal Weather Stations






























Interactive Weather Map
Tropical Storm Tracking
New forecast layout! Learn more

10-Day Weather Forecast

Advertisements
Track Severe Weather on mobile